createdAt,value
2019-04-30T00:01:36.159Z,88.78
2019-04-30T00:04:06.395Z,87.91
2019-04-30T00:06:39.341Z,87.19
2019-04-30T00:09:09.711Z,86.96
2019-04-30T00:11:37.393Z,87.44
2019-04-30T00:14:06.220Z,87.58
2019-04-30T00:16:36.199Z,86.75
2019-04-30T00:19:06.146Z,86.33
2019-04-30T00:21:36.119Z,83.89
2019-04-30T00:24:10.000Z,82.78
2019-04-30T00:26:35.616Z,83.00
2019-04-30T00:29:05.113Z,82.87
2019-04-30T00:31:35.016Z,82.66
2019-04-30T00:34:05.047Z,84.80
2019-04-30T00:36:37.257Z,86.33
2019-04-30T00:39:07.153Z,87.88
2019-04-30T00:41:39.939Z,88.87
2019-04-30T00:44:06.882Z,89.69
2019-04-30T00:46:36.478Z,90.07
2019-04-30T00:49:09.807Z,90.47
2019-04-30T00:51:35.888Z,90.75
2019-04-30T00:54:05.653Z,90.96
2019-04-30T00:56:35.512Z,91.63
2019-04-30T00:59:07.045Z,92.43
2019-04-30T01:01:43.484Z,92.69
2019-04-30T01:04:28.209Z,92.95
2019-04-30T01:07:00.284Z,93.20
2019-04-30T01:09:29.270Z,93.72
2019-04-30T01:11:57.996Z,94.42
2019-04-30T01:14:28.419Z,94.13
2019-04-30T01:16:59.293Z,93.76
2019-04-30T01:19:32.150Z,93.45
2019-04-30T01:21:59.445Z,93.19
2019-04-30T01:24:31.638Z,93.12
2019-04-30T01:27:06.698Z,93.14
2019-04-30T01:29:40.779Z,93.27
2019-04-30T01:32:03.456Z,93.39
2019-04-30T01:34:32.179Z,93.43
2019-04-30T01:37:00.941Z,93.13
2019-04-30T01:39:31.609Z,91.74
2019-04-30T01:42:02.999Z,91.76
2019-04-30T01:44:31.823Z,91.88
2019-04-30T01:47:00.557Z,91.84
2019-04-30T01:49:41.560Z,92.11
2019-04-30T01:52:00.970Z,92.46
2019-04-30T01:54:29.921Z,92.77
2019-04-30T01:57:19.314Z,92.83
2019-04-30T02:00:09.749Z,92.30
2019-04-30T02:02:39.915Z,92.71
2019-04-30T02:05:09.004Z,93.72
2019-04-30T02:07:40.148Z,94.32
2019-04-30T02:10:09.601Z,94.85
2019-04-30T02:12:39.259Z,93.30
2019-04-30T02:15:09.525Z,92.93
2019-04-30T02:17:38.913Z,93.90
2019-04-30T02:20:08.925Z,94.15
2019-04-30T02:22:38.946Z,95.26
2019-04-30T02:25:09.760Z,96.73
2019-04-30T02:27:39.070Z,97.57
2019-04-30T02:30:11.125Z,98.25
2019-04-30T02:32:40.438Z,98.49
2019-04-30T02:35:13.699Z,98.64
2019-04-30T02:38:01.303Z,99.34
2019-04-30T02:40:32.511Z,100.00
2019-04-30T02:43:02.093Z,99.29
2019-04-30T02:45:32.898Z,99.39
2019-04-30T02:48:03.487Z,99.82
2019-04-30T02:50:34.728Z,99.52
2019-04-30T02:53:05.756Z,99.09
2019-04-30T02:55:44.541Z,99.72
2019-04-30T02:58:13.445Z,100.00
2019-04-30T03:00:42.165Z,100.00
2019-04-30T03:03:10.887Z,100.00
2019-04-30T03:05:39.654Z,100.00
2019-04-30T03:08:09.663Z,100.00
2019-04-30T03:10:40.186Z,100.00
2019-04-30T03:13:09.856Z,100.00
2019-04-30T03:15:39.469Z,100.00
2019-04-30T03:18:13.032Z,100.00
2019-04-30T03:20:49.774Z,100.00
2019-04-30T03:23:19.549Z,100.00
2019-04-30T03:25:50.191Z,100.00
2019-04-30T03:28:20.233Z,100.00
2019-04-30T03:30:52.018Z,100.00
2019-04-30T03:33:22.943Z,100.00
2019-04-30T03:35:53.959Z,100.00
2019-04-30T03:38:21.587Z,100.00
2019-04-30T03:40:50.472Z,100.00
2019-04-30T03:43:20.387Z,100.00
2019-04-30T03:45:49.904Z,100.00
2019-04-30T03:48:20.025Z,100.00
2019-04-30T03:50:55.675Z,99.57
2019-04-30T03:53:20.208Z,99.59
2019-04-30T03:55:50.589Z,99.91
2019-04-30T03:58:21.169Z,100.00
2019-04-30T04:01:03.735Z,100.00
2019-04-30T04:03:34.154Z,100.00
2019-04-30T04:06:21.480Z,100.00
2019-04-30T04:09:01.027Z,99.64
2019-04-30T04:11:31.327Z,99.21
2019-04-30T04:14:00.044Z,99.43
2019-04-30T04:16:31.915Z,98.86
2019-04-30T04:18:59.457Z,98.76
2019-04-30T04:21:30.054Z,97.97
2019-04-30T04:24:00.203Z,97.85
2019-04-30T04:26:29.889Z,97.77
2019-04-30T04:28:59.441Z,97.87
2019-04-30T04:31:29.898Z,97.52
2019-04-30T04:34:00.073Z,96.93
2019-04-30T04:36:30.253Z,96.50
2019-04-30T04:39:00.417Z,96.04
2019-04-30T04:41:29.622Z,96.45
2019-04-30T04:44:00.206Z,94.39
2019-04-30T04:46:30.768Z,90.33
2019-04-30T04:48:59.767Z,85.92
2019-04-30T04:51:38.126Z,83.20
2019-04-30T04:54:00.148Z,81.13
2019-04-30T04:56:30.458Z,80.25
2019-04-30T04:59:00.233Z,79.39
2019-04-30T05:01:30.588Z,79.79
2019-04-30T05:03:59.313Z,80.24
2019-04-30T05:06:29.816Z,80.61
2019-04-30T05:08:59.177Z,80.00
2019-04-30T05:11:31.672Z,79.89
2019-04-30T05:13:59.914Z,77.67
2019-04-30T05:16:28.975Z,75.79
2019-04-30T05:18:58.655Z,73.55
2019-04-30T05:21:39.656Z,73.37
2019-04-30T05:23:59.080Z,73.87
2019-04-30T05:26:28.680Z,74.50
2019-04-30T05:28:59.171Z,72.79
2019-04-30T05:31:28.943Z,73.06
2019-04-30T05:33:58.721Z,72.06
2019-04-30T05:36:29.210Z,71.84
2019-04-30T05:38:58.749Z,70.60
2019-04-30T05:41:28.980Z,70.98
2019-04-30T05:43:59.125Z,70.98
2019-04-30T05:46:29.826Z,71.00
2019-04-30T05:48:59.436Z,71.42
2019-04-30T05:51:28.906Z,71.43
2019-04-30T05:53:59.264Z,72.82
2019-04-30T05:56:30.205Z,72.21
2019-04-30T05:58:59.310Z,73.52
2019-04-30T06:01:29.539Z,73.59
2019-04-30T06:03:59.443Z,71.85
2019-04-30T06:06:29.000Z,71.72
2019-04-30T06:09:14.766Z,73.32
2019-04-30T06:11:52.826Z,72.31
2019-04-30T06:14:47.992Z,73.31
2019-04-30T06:17:09.277Z,72.86
2019-04-30T06:19:39.148Z,72.64
2019-04-30T06:22:10.850Z,71.19
2019-04-30T06:24:39.552Z,71.58
2019-04-30T06:27:10.581Z,71.13
2019-04-30T06:29:39.660Z,72.08
2019-04-30T06:32:08.783Z,69.49
2019-04-30T06:34:41.835Z,70.16
2019-04-30T06:37:10.220Z,70.51
2019-04-30T06:39:38.947Z,68.72
2019-04-30T06:42:12.451Z,69.42
2019-04-30T06:44:41.863Z,68.59
2019-04-30T06:47:09.801Z,68.73
2019-04-30T06:49:39.376Z,65.86
2019-04-30T06:52:18.180Z,63.63
2019-04-30T06:54:39.787Z,61.98
2019-04-30T06:57:09.682Z,61.27
2019-04-30T06:59:39.731Z,59.42
2019-04-30T07:02:09.262Z,55.82
2019-04-30T07:04:40.025Z,56.86
2019-04-30T07:07:09.245Z,61.06
2019-04-30T07:09:55.922Z,58.38
2019-04-30T07:12:27.839Z,57.27
2019-04-30T07:14:54.266Z,59.33
2019-04-30T07:17:22.988Z,55.47
2019-04-30T07:19:56.536Z,54.40
2019-04-30T07:22:36.728Z,56.83
2019-04-30T07:24:52.708Z,56.50
2019-04-30T07:27:24.117Z,59.31
2019-04-30T07:29:52.049Z,56.53
2019-04-30T07:32:20.773Z,57.05
2019-04-30T07:34:49.940Z,54.00
2019-04-30T07:37:24.202Z,54.25
2019-04-30T07:39:49.455Z,55.99
2019-04-30T07:42:19.223Z,53.45
2019-04-30T07:44:50.246Z,54.59
2019-04-30T07:47:19.518Z,54.17
2019-04-30T07:49:52.967Z,53.30
2019-04-30T07:52:21.559Z,52.08
2019-04-30T07:54:51.876Z,50.42
2019-04-30T07:57:20.599Z,51.76
2019-04-30T07:59:49.840Z,49.81
2019-04-30T08:02:20.873Z,51.78
2019-04-30T08:04:51.319Z,52.51
2019-04-30T08:07:20.648Z,48.64
2019-04-30T08:09:49.576Z,50.77
2019-04-30T08:12:26.033Z,47.87
2019-04-30T08:14:50.187Z,49.23
2019-04-30T08:17:19.004Z,50.27
2019-04-30T08:19:48.965Z,49.10
2019-04-30T08:22:19.677Z,50.40
2019-04-30T08:24:49.178Z,49.60
2019-04-30T08:27:19.632Z,48.67
2019-04-30T08:29:49.937Z,48.16
2019-04-30T08:32:19.179Z,48.16
2019-04-30T08:34:50.116Z,48.30
2019-04-30T08:37:20.251Z,47.35
2019-04-30T08:39:49.685Z,46.88
2019-04-30T08:42:28.991Z,47.62
2019-04-30T08:44:49.279Z,47.28
2019-04-30T08:47:18.818Z,48.75
2019-04-30T08:49:50.017Z,46.61
2019-04-30T08:52:19.793Z,48.61
2019-04-30T08:54:49.599Z,46.07
2019-04-30T08:57:19.197Z,46.55
2019-04-30T08:59:49.470Z,46.76
2019-04-30T09:02:19.687Z,45.38
2019-04-30T09:04:50.286Z,43.53
2019-04-30T09:07:19.724Z,43.59
2019-04-30T09:09:48.915Z,43.59
2019-04-30T09:12:19.632Z,42.40
2019-04-30T09:14:49.104Z,42.36
2019-04-30T09:17:19.913Z,40.53
2019-04-30T09:19:49.125Z,43.73
2019-04-30T09:22:19.517Z,40.22
2019-04-30T09:24:49.678Z,43.54
2019-04-30T09:27:19.555Z,43.54
2019-04-30T09:29:49.202Z,42.04
2019-04-30T09:32:19.291Z,42.37
2019-04-30T09:34:48.933Z,41.82
2019-04-30T09:37:18.756Z,41.82
2019-04-30T09:39:49.430Z,43.25
2019-04-30T09:42:19.462Z,43.16
2019-04-30T09:44:49.233Z,41.86
2019-04-30T09:47:20.057Z,42.77
2019-04-30T09:49:49.406Z,43.69
2019-04-30T09:52:19.301Z,43.15
2019-04-30T09:54:50.084Z,41.86
2019-04-30T09:57:19.444Z,41.86
2019-04-30T09:59:48.697Z,39.09
2019-04-30T10:02:19.159Z,39.09
2019-04-30T10:04:49.761Z,38.87
2019-04-30T10:07:19.499Z,36.50
2019-04-30T10:09:50.664Z,35.36
2019-04-30T10:12:19.666Z,36.34
2019-04-30T10:14:49.502Z,36.28
2019-04-30T10:17:22.846Z,33.53
2019-04-30T10:19:51.720Z,32.59
2019-04-30T10:22:20.441Z,32.67
2019-04-30T10:24:49.509Z,34.21
2019-04-30T10:27:19.156Z,33.10
2019-04-30T10:29:49.354Z,32.92
2019-04-30T10:32:18.747Z,33.26
2019-04-30T10:34:47.951Z,33.43
2019-04-30T10:37:18.752Z,35.65
2019-04-30T10:39:48.998Z,34.76
2019-04-30T10:42:17.700Z,36.27
2019-04-30T10:44:46.416Z,36.18
2019-04-30T10:47:15.830Z,35.65
2019-04-30T10:49:44.670Z,34.80
2019-04-30T10:52:13.394Z,31.36
2019-04-30T10:54:42.115Z,36.45
2019-04-30T10:57:10.864Z,35.12
2019-04-30T10:59:39.678Z,35.52
2019-04-30T11:02:09.081Z,34.45
2019-04-30T11:04:39.609Z,35.76
2019-04-30T11:07:08.718Z,33.05
2019-04-30T11:09:39.379Z,35.13
2019-04-30T11:12:09.458Z,37.12
2019-04-30T11:14:38.357Z,36.11
2019-04-30T11:17:09.643Z,37.54
2019-04-30T11:19:39.058Z,39.96
2019-04-30T11:22:08.200Z,34.69
2019-04-30T11:24:53.394Z,35.32
2019-04-30T11:27:10.165Z,32.64
2019-04-30T11:29:39.379Z,33.92
2019-04-30T11:32:12.556Z,31.45
2019-04-30T11:34:41.644Z,31.42
2019-04-30T11:37:10.354Z,31.15
2019-04-30T11:39:39.080Z,33.88
2019-04-30T11:42:07.878Z,33.28
2019-04-30T11:44:38.665Z,37.69
2019-04-30T11:47:09.968Z,34.16
2019-04-30T11:49:39.527Z,33.12
2019-04-30T11:52:08.344Z,33.21
2019-04-30T11:54:48.755Z,37.51
2019-04-30T11:57:08.929Z,34.76
2019-04-30T11:59:39.536Z,37.53
2019-04-30T12:02:10.135Z,35.57
2019-04-30T12:04:39.424Z,34.75
2019-04-30T12:07:18.792Z,30.00
2019-04-30T12:09:53.110Z,29.35
2019-04-30T12:12:21.826Z,35.39
2019-04-30T12:14:50.543Z,33.27
2019-04-30T12:17:19.298Z,29.53
2019-04-30T12:19:48.861Z,28.67
2019-04-30T12:22:20.014Z,28.04
2019-04-30T12:24:48.880Z,28.24
2019-04-30T12:27:18.773Z,30.41
2019-04-30T12:29:49.470Z,29.29
2019-04-30T12:32:19.217Z,31.54
2019-04-30T12:34:48.489Z,32.39
2019-04-30T12:37:18.992Z,30.93
2019-04-30T12:39:49.164Z,33.06
2019-04-30T12:42:18.856Z,34.36
2019-04-30T12:44:49.440Z,33.80
2019-04-30T12:47:21.763Z,32.98
2019-04-30T12:49:53.443Z,31.99
2019-04-30T12:52:29.889Z,35.79
2019-04-30T12:55:15.145Z,36.09
2019-04-30T12:57:41.303Z,37.52
2019-04-30T13:00:11.931Z,36.64
2019-04-30T13:02:40.656Z,35.64
2019-04-30T13:05:10.790Z,30.62
2019-04-30T13:07:40.410Z,30.53
2019-04-30T13:10:09.994Z,31.35
2019-04-30T13:12:39.732Z,31.89
2019-04-30T13:15:10.886Z,31.06
2019-04-30T13:17:39.661Z,32.43
2019-04-30T13:20:18.615Z,32.94
2019-04-30T13:22:39.343Z,34.97
2019-04-30T13:25:09.526Z,36.16
2019-04-30T13:27:39.871Z,36.50
2019-04-30T13:30:11.366Z,37.52
2019-04-30T13:32:41.657Z,36.53
2019-04-30T13:35:11.331Z,36.96
2019-04-30T13:37:41.620Z,36.41
2019-04-30T13:40:12.114Z,37.50
2019-04-30T13:42:42.526Z,35.97
2019-04-30T13:45:11.440Z,36.10
2019-04-30T13:47:40.157Z,35.86
2019-04-30T13:50:10.078Z,36.09
2019-04-30T13:52:39.036Z,37.11
2019-04-30T13:55:10.730Z,36.31
2019-04-30T13:57:39.288Z,35.76
2019-04-30T14:00:12.247Z,35.75
2019-04-30T14:02:44.800Z,34.53
2019-04-30T14:05:14.730Z,35.07
2019-04-30T14:07:57.059Z,34.35
2019-04-30T14:10:25.982Z,35.40
2019-04-30T14:12:56.266Z,35.37
2019-04-30T14:15:25.373Z,34.36
2019-04-30T14:17:54.224Z,34.52
2019-04-30T14:20:23.119Z,34.62
2019-04-30T14:22:51.993Z,32.76
2019-04-30T14:25:20.706Z,34.25
2019-04-30T14:27:54.530Z,34.17
2019-04-30T14:30:20.805Z,32.92
2019-04-30T14:32:50.757Z,33.06
2019-04-30T14:35:19.625Z,33.05
2019-04-30T14:37:54.577Z,33.10
2019-04-30T14:40:24.138Z,32.72
2019-04-30T14:43:02.156Z,33.04
2019-04-30T14:45:42.299Z,34.07
2019-04-30T14:48:23.743Z,32.48
2019-04-30T14:50:52.746Z,35.23
2019-04-30T14:53:30.524Z,32.88
2019-04-30T14:56:08.884Z,34.89
2019-04-30T14:58:50.055Z,34.74
2019-04-30T15:01:20.347Z,32.80
2019-04-30T15:03:49.542Z,32.19
2019-04-30T15:06:19.410Z,33.48
2019-04-30T15:08:49.502Z,36.03
2019-04-30T15:11:19.053Z,36.54
2019-04-30T15:13:49.420Z,36.75
2019-04-30T15:16:18.224Z,36.22
2019-04-30T15:18:46.941Z,36.52
2019-04-30T15:21:15.813Z,37.45
2019-04-30T15:23:58.548Z,39.14
2019-04-30T15:26:25.205Z,37.97
2019-04-30T15:28:54.150Z,39.05
2019-04-30T15:31:22.868Z,36.31
2019-04-30T15:34:02.561Z,35.53
2019-04-30T15:36:26.504Z,35.82
2019-04-30T15:38:56.796Z,36.30
2019-04-30T15:41:25.771Z,36.54
2019-04-30T15:43:54.486Z,36.54
2019-04-30T15:46:23.507Z,36.94
2019-04-30T15:48:52.372Z,37.74
2019-04-30T15:51:31.483Z,38.20
2019-04-30T15:54:01.255Z,38.48
2019-04-30T15:56:37.132Z,38.86
2019-04-30T15:59:18.971Z,39.57
2019-04-30T16:01:55.185Z,39.77
2019-04-30T16:04:38.498Z,39.31
2019-04-30T16:07:08.487Z,40.08
2019-04-30T16:09:38.851Z,40.65
2019-04-30T16:12:20.103Z,40.53
2019-04-30T16:14:48.596Z,41.53
2019-04-30T16:17:20.591Z,41.70
2019-04-30T16:19:49.527Z,40.60
2019-04-30T16:22:19.221Z,40.53
2019-04-30T16:24:49.603Z,39.84
2019-04-30T16:27:19.159Z,39.72
2019-04-30T16:29:49.807Z,39.97
2019-04-30T16:32:19.267Z,40.58
2019-04-30T16:34:49.846Z,40.87
2019-04-30T16:37:20.243Z,41.11
2019-04-30T16:39:49.071Z,40.78
2019-04-30T16:42:19.052Z,42.32
2019-04-30T16:44:48.030Z,42.43
2019-04-30T16:47:17.194Z,42.50
2019-04-30T16:49:46.058Z,42.54
2019-04-30T16:52:14.811Z,43.05
2019-04-30T16:54:43.526Z,43.36
2019-04-30T16:57:12.309Z,43.92
2019-04-30T16:59:42.340Z,44.06
2019-04-30T17:02:11.845Z,44.59
2019-04-30T17:04:57.527Z,45.65
2019-04-30T17:07:30.887Z,46.10
2019-04-30T17:10:10.060Z,44.78
2019-04-30T17:12:43.100Z,44.58
2019-04-30T17:15:25.625Z,44.70
2019-04-30T17:17:54.360Z,45.61
2019-04-30T17:20:23.088Z,45.98
2019-04-30T17:22:52.145Z,45.78
2019-04-30T17:25:20.836Z,45.85
2019-04-30T17:27:49.553Z,42.81
2019-04-30T17:30:19.696Z,42.49
2019-04-30T17:32:49.869Z,44.04
2019-04-30T17:35:19.103Z,44.20
2019-04-30T17:37:48.058Z,43.81
2019-04-30T17:40:19.102Z,44.65
2019-04-30T17:42:47.551Z,45.23
2019-04-30T17:45:19.379Z,44.91
2019-04-30T17:47:47.921Z,44.65
2019-04-30T17:50:18.600Z,45.63
2019-04-30T17:52:47.235Z,46.16
2019-04-30T17:55:15.960Z,46.64
2019-04-30T17:57:44.688Z,47.47
2019-04-30T18:00:19.372Z,48.16
2019-04-30T18:02:45.412Z,47.99
2019-04-30T18:05:14.130Z,48.42
2019-04-30T18:07:42.897Z,48.38
2019-04-30T18:10:13.207Z,48.53
2019-04-30T18:12:41.930Z,47.93
2019-04-30T18:15:15.854Z,48.00
2019-04-30T18:17:46.234Z,48.34
2019-04-30T18:20:32.365Z,48.89
2019-04-30T18:23:18.750Z,49.57
2019-04-30T18:25:52.881Z,49.40
2019-04-30T18:28:21.595Z,49.59
2019-04-30T18:30:50.421Z,50.73
2019-04-30T18:33:20.089Z,51.56
2019-04-30T18:35:48.819Z,52.25
2019-04-30T18:38:17.850Z,51.76
2019-04-30T18:40:49.557Z,51.42
2019-04-30T18:43:20.539Z,50.88
2019-04-30T18:45:49.484Z,51.30
2019-04-30T18:48:19.531Z,52.58
2019-04-30T18:50:48.503Z,51.30
2019-04-30T18:53:18.742Z,51.15
2019-04-30T18:55:50.521Z,49.58
2019-04-30T18:58:19.999Z,49.04
2019-04-30T19:00:49.473Z,49.10
2019-04-30T19:03:21.767Z,49.37
2019-04-30T19:05:51.228Z,49.42
2019-04-30T19:08:21.528Z,49.42
2019-04-30T19:11:08.995Z,50.05
2019-04-30T19:13:56.221Z,50.28
2019-04-30T19:16:29.533Z,50.76
2019-04-30T19:19:00.978Z,50.96
2019-04-30T19:21:29.817Z,51.74
2019-04-30T19:23:59.496Z,52.05
2019-04-30T19:26:29.296Z,52.66
2019-04-30T19:28:58.083Z,53.45
2019-04-30T19:31:29.549Z,53.71
2019-04-30T19:33:58.853Z,53.67
2019-04-30T19:36:35.899Z,54.39
2019-04-30T19:38:59.789Z,54.45
2019-04-30T19:41:28.830Z,54.70
2019-04-30T19:43:57.602Z,55.05
2019-04-30T19:46:26.355Z,55.93
2019-04-30T19:48:55.071Z,55.81
2019-04-30T19:51:23.798Z,56.69
2019-04-30T19:53:52.679Z,58.67
2019-04-30T19:56:21.395Z,58.86
2019-04-30T19:59:01.457Z,56.67
2019-04-30T20:01:20.723Z,56.24
2019-04-30T20:03:49.438Z,57.42
2019-04-30T20:06:19.148Z,57.65
2019-04-30T20:08:48.220Z,57.25
2019-04-30T20:11:16.960Z,58.31
2019-04-30T20:13:45.665Z,58.47
2019-04-30T20:16:14.456Z,58.82
2019-04-30T20:18:43.186Z,59.86
2019-04-30T20:21:25.334Z,60.35
2019-04-30T20:23:46.879Z,61.01
2019-04-30T20:26:15.581Z,61.45
2019-04-30T20:28:44.393Z,62.18
2019-04-30T20:31:13.372Z,62.89
2019-04-30T20:33:42.090Z,63.17
2019-04-30T20:36:10.808Z,63.47
2019-04-30T20:38:41.329Z,63.53
2019-04-30T20:41:10.983Z,63.09
2019-04-30T20:43:39.734Z,60.25
2019-04-30T20:46:08.759Z,59.02
2019-04-30T20:48:39.306Z,58.93
2019-04-30T20:51:09.543Z,58.64
2019-04-30T20:53:39.054Z,58.78
2019-04-30T20:56:09.305Z,60.06
2019-04-30T20:58:39.075Z,60.67
2019-04-30T21:01:09.635Z,61.69
2019-04-30T21:03:39.550Z,62.45
2019-04-30T21:06:08.861Z,61.22
2019-04-30T21:08:37.877Z,61.24
2019-04-30T21:11:06.598Z,61.85
2019-04-30T21:13:35.311Z,61.30
2019-04-30T21:16:04.203Z,62.10
2019-04-30T21:18:32.921Z,62.69
2019-04-30T21:21:01.632Z,63.81
2019-04-30T21:23:30.438Z,64.67
2019-04-30T21:25:59.168Z,65.75
2019-04-30T21:28:29.749Z,66.62
2019-04-30T21:31:00.872Z,67.54
2019-04-30T21:33:49.261Z,68.16
2019-04-30T21:36:19.195Z,68.97
2019-04-30T21:38:49.032Z,70.11
2019-04-30T21:41:19.530Z,71.04
2019-04-30T21:43:48.516Z,71.63
2019-04-30T21:46:19.075Z,72.18
2019-04-30T21:48:48.788Z,73.13
2019-04-30T21:51:19.276Z,74.10
2019-04-30T21:53:50.320Z,74.50
2019-04-30T21:56:18.565Z,74.64
2019-04-30T21:58:48.259Z,75.35
2019-04-30T22:01:18.647Z,75.83
2019-04-30T22:03:47.774Z,76.47
2019-04-30T22:06:16.564Z,76.61
2019-04-30T22:08:45.271Z,76.47
2019-04-30T22:11:19.838Z,76.68
2019-04-30T22:13:54.850Z,75.24
2019-04-30T22:16:26.590Z,74.46
2019-04-30T22:18:55.304Z,73.65
2019-04-30T22:21:24.172Z,72.70
2019-04-30T22:23:52.891Z,72.44
2019-04-30T22:26:21.608Z,72.10
2019-04-30T22:28:50.483Z,73.01
2019-04-30T22:31:19.768Z,73.45
2019-04-30T22:33:49.117Z,73.42
2019-04-30T22:36:25.729Z,73.22
2019-04-30T22:38:56.024Z,72.39
2019-04-30T22:41:29.798Z,72.20
2019-04-30T22:43:58.533Z,72.42
2019-04-30T22:46:29.252Z,72.45
2019-04-30T22:48:57.738Z,72.47
2019-04-30T22:51:26.532Z,72.50
2019-04-30T22:53:55.244Z,72.58
2019-04-30T22:56:24.022Z,73.21
2019-04-30T22:58:52.734Z,73.54
2019-04-30T23:01:25.773Z,73.16
2019-04-30T23:03:59.014Z,72.71
2019-04-30T23:06:27.739Z,72.90
2019-04-30T23:08:56.446Z,73.29
2019-04-30T23:11:26.460Z,73.12
2019-04-30T23:13:55.178Z,73.35
2019-04-30T23:16:23.897Z,73.21
2019-04-30T23:18:53.472Z,73.51
2019-04-30T23:21:22.188Z,73.88
2019-04-30T23:23:50.904Z,74.71
2019-04-30T23:26:19.682Z,74.64
2019-04-30T23:28:48.406Z,74.70
2019-04-30T23:31:17.119Z,74.85
2019-04-30T23:33:45.876Z,74.99
2019-04-30T23:36:14.658Z,75.14
2019-04-30T23:38:43.372Z,75.42
2019-04-30T23:41:12.327Z,76.23
2019-04-30T23:43:41.046Z,76.79
2019-04-30T23:46:09.755Z,77.13
2019-04-30T23:48:38.626Z,77.28
2019-04-30T23:51:07.338Z,78.13
2019-04-30T23:53:36.059Z,79.26
2019-04-30T23:56:05.085Z,79.29
2019-04-30T23:58:33.795Z,78.67
